sensor_id;sensor_type;location;lat;lon;timestamp;temperature;humidity
8130;DHT22;4106;52.532;13.408;2022-09-01T00:00:17;16.00;94.30
8130;DHT22;4106;52.532;13.408;2022-09-01T00:02:45;16.10;95.00
8130;DHT22;4106;52.532;13.408;2022-09-01T00:05:13;16.10;94.00
8130;DHT22;4106;52.532;13.408;2022-09-01T00:07:41;16.10;95.10
8130;DHT22;4106;52.532;13.408;2022-09-01T00:10:09;16.10;94.30
8130;DHT22;4106;52.532;13.408;2022-09-01T00:12:36;16.00;94.10
8130;DHT22;4106;52.532;13.408;2022-09-01T00:15:05;16.10;94.40
8130;DHT22;4106;52.532;13.408;2022-09-01T00:17:31;16.00;94.60
8130;DHT22;4106;52.532;13.408;2022-09-01T00:19:59;16.00;94.90
8130;DHT22;4106;52.532;13.408;2022-09-01T00:22:26;16.00;94.90
8130;DHT22;4106;52.532;13.408;2022-09-01T00:24:53;16.00;93.50
8130;DHT22;4106;52.532;13.408;2022-09-01T00:27:21;15.90;94.50
8130;DHT22;4106;52.532;13.408;2022-09-01T00:29:49;16.00;94.20
8130;DHT22;4106;52.532;13.408;2022-09-01T00:32:17;15.90;94.90
8130;DHT22;4106;52.532;13.408;2022-09-01T00:34:45;15.90;94.10
8130;DHT22;4106;52.532;13.408;2022-09-01T00:37:12;15.90;94.10
8130;DHT22;4106;52.532;13.408;2022-09-01T00:39:39;15.90;94.40
8130;DHT22;4106;52.532;13.408;2022-09-01T00:42:07;15.90;95.00
8130;DHT22;4106;52.532;13.408;2022-09-01T00:44:35;15.80;94.30
8130;DHT22;4106;52.532;13.408;2022-09-01T00:47:03;15.80;94.30
8130;DHT22;4106;52.532;13.408;2022-09-01T00:49:34;15.70;93.90
8130;DHT22;4106;52.532;13.408;2022-09-01T00:52:04;15.70;95.40
8130;DHT22;4106;52.532;13.408;2022-09-01T00:54:30;15.60;94.00
8130;DHT22;4106;52.532;13.408;2022-09-01T00:56:56;15.60;95.80
8130;DHT22;4106;52.532;13.408;2022-09-01T00:59:23;15.50;94.40
8130;DHT22;4106;52.532;13.408;2022-09-01T01:01:50;15.50;94.50
8130;DHT22;4106;52.532;13.408;2022-09-01T01:04:17;15.50;95.10
8130;DHT22;4106;52.532;13.408;2022-09-01T01:06:47;15.50;95.30
8130;DHT22;4106;52.532;13.408;2022-09-01T01:09:13;15.50;95.30
8130;DHT22;4106;52.532;13.408;2022-09-01T01:11:40;15.50;94.90
8130;DHT22;4106;52.532;13.408;2022-09-01T01:14:08;15.40;95.40
8130;DHT22;4106;52.532;13.408;2022-09-01T01:16:38;15.40;95.40
8130;DHT22;4106;52.532;13.408;2022-09-01T01:19:05;15.40;95.40
8130;DHT22;4106;52.532;13.408;2022-09-01T01:21:34;15.40;96.00
8130;DHT22;4106;52.532;13.408;2022-09-01T01:26:45;15.40;94.90
8130;DHT22;4106;52.532;13.408;2022-09-01T01:29:13;15.30;96.10
8130;DHT22;4106;52.532;13.408;2022-09-01T01:31:40;15.30;95.90
8130;DHT22;4106;52.532;13.408;2022-09-01T01:34:07;15.30;95.50
8130;DHT22;4106;52.532;13.408;2022-09-01T01:36:36;15.20;96.00
8130;DHT22;4106;52.532;13.408;2022-09-01T01:39:06;15.20;95.60
8130;DHT22;4106;52.532;13.408;2022-09-01T01:41:32;15.10;95.60
8130;DHT22;4106;52.532;13.408;2022-09-01T01:43:59;15.10;96.30
8130;DHT22;4106;52.532;13.408;2022-09-01T01:46:26;15.10;96.50
8130;DHT22;4106;52.532;13.408;2022-09-01T01:48:54;15.00;96.70
8130;DHT22;4106;52.532;13.408;2022-09-01T01:51:22;15.00;96.70
8130;DHT22;4106;52.532;13.408;2022-09-01T01:53:50;15.00;96.70
8130;DHT22;4106;52.532;13.408;2022-09-01T01:56:18;15.00;96.50
8130;DHT22;4106;52.532;13.408;2022-09-01T01:58:45;15.00;96.90
8130;DHT22;4106;52.532;13.408;2022-09-01T02:01:12;15.00;96.90
8130;DHT22;4106;52.532;13.408;2022-09-01T02:03:40;15.00;97.70
8130;DHT22;4106;52.532;13.408;2022-09-01T02:06:08;15.00;97.00
8130;DHT22;4106;52.532;13.408;2022-09-01T02:08:34;14.90;97.60
8130;DHT22;4106;52.532;13.408;2022-09-01T02:11:02;15.00;97.00
8130;DHT22;4106;52.532;13.408;2022-09-01T02:13:29;14.80;97.50
8130;DHT22;4106;52.532;13.408;2022-09-01T02:15:59;14.70;98.00
8130;DHT22;4106;52.532;13.408;2022-09-01T02:18:27;14.60;99.10
8130;DHT22;4106;52.532;13.408;2022-09-01T02:20:53;14.60;99.10
8130;DHT22;4106;52.532;13.408;2022-09-01T02:23:21;14.50;98.80
8130;DHT22;4106;52.532;13.408;2022-09-01T02:25:51;14.40;98.50
8130;DHT22;4106;52.532;13.408;2022-09-01T02:28:18;14.30;99.20
8130;DHT22;4106;52.532;13.408;2022-09-01T02:30:47;14.20;99.90
8130;DHT22;4106;52.532;13.408;2022-09-01T02:33:14;14.20;99.90
8130;DHT22;4106;52.532;13.408;2022-09-01T02:35:40;14.20;99.90
8130;DHT22;4106;52.532;13.408;2022-09-01T02:38:07;14.20;99.80
8130;DHT22;4106;52.532;13.408;2022-09-01T02:40:35;14.20;99.90
8130;DHT22;4106;52.532;13.408;2022-09-01T02:43:02;14.20;99.90
8130;DHT22;4106;52.532;13.408;2022-09-01T02:45:29;14.20;99.90
8130;DHT22;4106;52.532;13.408;2022-09-01T02:47:56;14.10;99.90
8130;DHT22;4106;52.532;13.408;2022-09-01T02:50:24;14.10;99.90
8130;DHT22;4106;52.532;13.408;2022-09-01T02:52:51;14.10;99.90
8130;DHT22;4106;52.532;13.408;2022-09-01T02:55:18;14.00;99.90
8130;DHT22;4106;52.532;13.408;2022-09-01T02:57:48;13.90;99.90
8130;DHT22;4106;52.532;13.408;2022-09-01T03:00:16;13.90;99.90
8130;DHT22;4106;52.532;13.408;2022-09-01T03:02:48;13.70;99.90
8130;DHT22;4106;52.532;13.408;2022-09-01T03:05:15;13.70;99.90
8130;DHT22;4106;52.532;13.408;2022-09-01T03:07:42;13.60;99.90
8130;DHT22;4106;52.532;13.408;2022-09-01T03:10:09;13.50;99.90
8130;DHT22;4106;52.532;13.408;2022-09-01T03:12:36;13.50;99.90
8130;DHT22;4106;52.532;13.408;2022-09-01T03:15:04;13.50;99.90
8130;DHT22;4106;52.532;13.408;2022-09-01T03:17:31;13.50;99.90
8130;DHT22;4106;52.532;13.408;2022-09-01T03:19:59;13.30;99.90
8130;DHT22;4106;52.532;13.408;2022-09-01T03:22:26;13.30;99.90
8130;DHT22;4106;52.532;13.408;2022-09-01T03:24:54;13.30;99.90
8130;DHT22;4106;52.532;13.408;2022-09-01T03:27:21;13.30;99.90
8130;DHT22;4106;52.532;13.408;2022-09-01T03:29:48;13.20;99.90
8130;DHT22;4106;52.532;13.408;2022-09-01T03:32:15;13.10;99.90
8130;DHT22;4106;52.532;13.408;2022-09-01T03:34:43;13.10;99.90
8130;DHT22;4106;52.532;13.408;2022-09-01T03:37:11;13.00;99.90
8130;DHT22;4106;52.532;13.408;2022-09-01T03:39:39;12.90;99.90
8130;DHT22;4106;52.532;13.408;2022-09-01T03:42:07;12.90;99.90
8130;DHT22;4106;52.532;13.408;2022-09-01T03:44:34;12.90;99.90
8130;DHT22;4106;52.532;13.408;2022-09-01T03:47:01;12.80;99.90
8130;DHT22;4106;52.532;13.408;2022-09-01T03:49:28;12.90;99.90
8130;DHT22;4106;52.532;13.408;2022-09-01T03:51:57;12.80;99.90
8130;DHT22;4106;52.532;13.408;2022-09-01T03:54:25;12.90;99.90
8130;DHT22;4106;52.532;13.408;2022-09-01T03:56:53;12.80;99.90
8130;DHT22;4106;52.532;13.408;2022-09-01T03:59:21;12.80;99.90
8130;DHT22;4106;52.532;13.408;2022-09-01T04:01:49;12.70;99.90
8130;DHT22;4106;52.532;13.408;2022-09-01T04:04:16;12.70;99.90
8130;DHT22;4106;52.532;13.408;2022-09-01T04:06:44;12.70;99.90
8130;DHT22;4106;52.532;13.408;2022-09-01T04:09:11;12.70;99.90
8130;DHT22;4106;52.532;13.408;2022-09-01T04:11:39;12.70;99.90
8130;DHT22;4106;52.532;13.408;2022-09-01T04:14:09;12.70;99.90
8130;DHT22;4106;52.532;13.408;2022-09-01T04:16:35;12.70;99.90
8130;DHT22;4106;52.532;13.408;2022-09-01T04:19:08;12.70;99.90
8130;DHT22;4106;52.532;13.408;2022-09-01T04:21:43;12.60;99.90
8130;DHT22;4106;52.532;13.408;2022-09-01T04:24:10;12.60;99.90
8130;DHT22;4106;52.532;13.408;2022-09-01T04:26:39;12.50;99.90
8130;DHT22;4106;52.532;13.408;2022-09-01T04:29:07;12.40;99.90
8130;DHT22;4106;52.532;13.408;2022-09-01T04:31:35;12.40;99.90
8130;DHT22;4106;52.532;13.408;2022-09-01T04:34:03;12.40;99.90
8130;DHT22;4106;52.532;13.408;2022-09-01T04:36:30;12.50;99.90
8130;DHT22;4106;52.532;13.408;2022-09-01T04:38:59;12.40;99.90
8130;DHT22;4106;52.532;13.408;2022-09-01T04:41:29;12.50;99.90
8130;DHT22;4106;52.532;13.408;2022-09-01T04:43:55;12.50;99.90
8130;DHT22;4106;52.532;13.408;2022-09-01T04:46:23;12.50;99.90
8130;DHT22;4106;52.532;13.408;2022-09-01T04:48:51;12.60;99.90
8130;DHT22;4106;52.532;13.408;2022-09-01T04:51:16;12.50;99.90
8130;DHT22;4106;52.532;13.408;2022-09-01T04:53:44;12.50;99.90
8130;DHT22;4106;52.532;13.408;2022-09-01T04:56:11;12.50;99.90
8130;DHT22;4106;52.532;13.408;2022-09-01T04:58:38;12.60;99.90
8130;DHT22;4106;52.532;13.408;2022-09-01T05:01:12;12.60;99.90
8130;DHT22;4106;52.532;13.408;2022-09-01T05:03:38;12.60;99.90
8130;DHT22;4106;52.532;13.408;2022-09-01T05:06:11;12.70;99.90
8130;DHT22;4106;52.532;13.408;2022-09-01T05:08:33;12.60;99.90
8130;DHT22;4106;52.532;13.408;2022-09-01T05:11:02;12.70;99.90
8130;DHT22;4106;52.532;13.408;2022-09-01T05:13:27;12.70;99.90
8130;DHT22;4106;52.532;13.408;2022-09-01T05:16:02;12.80;99.90
8130;DHT22;4106;52.532;13.408;2022-09-01T05:18:27;12.80;99.90
8130;DHT22;4106;52.532;13.408;2022-09-01T05:20:55;12.80;99.90
8130;DHT22;4106;52.532;13.408;2022-09-01T05:23:23;12.90;99.90
8130;DHT22;4106;52.532;13.408;2022-09-01T05:25:51;12.90;99.90
8130;DHT22;4106;52.532;13.408;2022-09-01T05:28:18;12.90;99.90
8130;DHT22;4106;52.532;13.408;2022-09-01T05:30:45;13.00;99.90
8130;DHT22;4106;52.532;13.408;2022-09-01T05:33:13;13.00;99.90
8130;DHT22;4106;52.532;13.408;2022-09-01T05:35:40;13.10;99.90
8130;DHT22;4106;52.532;13.408;2022-09-01T05:38:09;13.20;99.90
8130;DHT22;4106;52.532;13.408;2022-09-01T05:40:35;13.20;99.90
8130;DHT22;4106;52.532;13.408;2022-09-01T05:43:02;13.20;99.90
8130;DHT22;4106;52.532;13.408;2022-09-01T05:45:30;13.30;99.90
8130;DHT22;4106;52.532;13.408;2022-09-01T05:47:58;13.50;99.90
8130;DHT22;4106;52.532;13.408;2022-09-01T05:50:25;13.50;99.90
8130;DHT22;4106;52.532;13.408;2022-09-01T05:52:52;13.50;99.90
8130;DHT22;4106;52.532;13.408;2022-09-01T05:55:19;13.50;99.90
8130;DHT22;4106;52.532;13.408;2022-09-01T05:57:46;13.60;99.90
8130;DHT22;4106;52.532;13.408;2022-09-01T06:00:14;13.80;99.90
8130;DHT22;4106;52.532;13.408;2022-09-01T06:02:42;13.90;99.90
8130;DHT22;4106;52.532;13.408;2022-09-01T06:05:10;14.00;99.90
8130;DHT22;4106;52.532;13.408;2022-09-01T06:07:38;14.10;99.90
8130;DHT22;4106;52.532;13.408;2022-09-01T06:10:06;14.20;99.90
8130;DHT22;4106;52.532;13.408;2022-09-01T06:12:33;14.20;99.90
8130;DHT22;4106;52.532;13.408;2022-09-01T06:15:01;14.50;99.90
8130;DHT22;4106;52.532;13.408;2022-09-01T06:17:29;14.60;99.90
8130;DHT22;4106;52.532;13.408;2022-09-01T06:19:57;14.70;99.90
8130;DHT22;4106;52.532;13.408;2022-09-01T06:22:26;15.00;99.90
8130;DHT22;4106;52.532;13.408;2022-09-01T06:24:52;14.90;99.90
8130;DHT22;4106;52.532;13.408;2022-09-01T06:27:20;15.00;99.90
8130;DHT22;4106;52.532;13.408;2022-09-01T06:29:47;15.10;99.90
8130;DHT22;4106;52.532;13.408;2022-09-01T06:32:14;15.20;99.90
8130;DHT22;4106;52.532;13.408;2022-09-01T06:34:42;15.30;99.90
8130;DHT22;4106;52.532;13.408;2022-09-01T06:37:09;15.30;99.90
8130;DHT22;4106;52.532;13.408;2022-09-01T06:39:36;15.40;99.90
8130;DHT22;4106;52.532;13.408;2022-09-01T06:42:05;15.60;99.90
8130;DHT22;4106;52.532;13.408;2022-09-01T06:44:32;15.50;99.90
8130;DHT22;4106;52.532;13.408;2022-09-01T06:47:00;15.60;99.90
8130;DHT22;4106;52.532;13.408;2022-09-01T06:49:27;15.70;99.90
8130;DHT22;4106;52.532;13.408;2022-09-01T06:51:58;15.80;99.90
8130;DHT22;4106;52.532;13.408;2022-09-01T06:54:25;15.90;99.90
8130;DHT22;4106;52.532;13.408;2022-09-01T06:56:52;16.00;99.90
8130;DHT22;4106;52.532;13.408;2022-09-01T06:59:20;16.00;99.90
8130;DHT22;4106;52.532;13.408;2022-09-01T07:01:48;16.20;99.90
8130;DHT22;4106;52.532;13.408;2022-09-01T07:04:15;16.30;99.90
8130;DHT22;4106;52.532;13.408;2022-09-01T07:06:43;16.40;99.90
8130;DHT22;4106;52.532;13.408;2022-09-01T07:09:11;16.50;99.90
8130;DHT22;4106;52.532;13.408;2022-09-01T07:11:42;16.70;99.90
8130;DHT22;4106;52.532;13.408;2022-09-01T07:14:10;16.60;99.90
8130;DHT22;4106;52.532;13.408;2022-09-01T07:16:38;16.70;98.70
8130;DHT22;4106;52.532;13.408;2022-09-01T07:19:05;16.70;99.80
8130;DHT22;4106;52.532;13.408;2022-09-01T07:21:32;16.80;99.50
8130;DHT22;4106;52.532;13.408;2022-09-01T07:23:59;16.80;98.10
8130;DHT22;4106;52.532;13.408;2022-09-01T07:26:27;16.90;99.10
8130;DHT22;4106;52.532;13.408;2022-09-01T07:28:54;17.00;97.70
8130;DHT22;4106;52.532;13.408;2022-09-01T07:31:23;17.10;97.10
8130;DHT22;4106;52.532;13.408;2022-09-01T07:33:50;17.10;97.40
8130;DHT22;4106;52.532;13.408;2022-09-01T07:36:18;17.10;95.90
8130;DHT22;4106;52.532;13.408;2022-09-01T07:38:45;17.10;95.90
8130;DHT22;4106;52.532;13.408;2022-09-01T07:41:12;17.10;97.20
8130;DHT22;4106;52.532;13.408;2022-09-01T07:43:39;17.10;97.50
8130;DHT22;4106;52.532;13.408;2022-09-01T07:46:06;17.20;96.60
8130;DHT22;4106;52.532;13.408;2022-09-01T07:48:34;17.30;95.50
8130;DHT22;4106;52.532;13.408;2022-09-01T07:51:01;17.20;95.00
8130;DHT22;4106;52.532;13.408;2022-09-01T07:53:29;17.30;95.30
8130;DHT22;4106;52.532;13.408;2022-09-01T07:55:57;17.20;95.30
8130;DHT22;4106;52.532;13.408;2022-09-01T07:58:26;17.40;94.50
8130;DHT22;4106;52.532;13.408;2022-09-01T08:00:54;17.40;95.00
8130;DHT22;4106;52.532;13.408;2022-09-01T08:03:23;17.50;95.00
8130;DHT22;4106;52.532;13.408;2022-09-01T08:05:50;17.50;95.90
8130;DHT22;4106;52.532;13.408;2022-09-01T08:08:16;17.50;95.90
8130;DHT22;4106;52.532;13.408;2022-09-01T08:10:44;17.60;96.20
8130;DHT22;4106;52.532;13.408;2022-09-01T08:13:11;17.70;95.10
8130;DHT22;4106;52.532;13.408;2022-09-01T08:15:39;17.70;94.00
8130;DHT22;4106;52.532;13.408;2022-09-01T08:18:06;17.70;95.00
8130;DHT22;4106;52.532;13.408;2022-09-01T08:20:36;17.80;94.10
8130;DHT22;4106;52.532;13.408;2022-09-01T08:23:02;17.90;94.70
8130;DHT22;4106;52.532;13.408;2022-09-01T08:25:30;17.90;94.70
8130;DHT22;4106;52.532;13.408;2022-09-01T08:27:56;18.00;95.20
8130;DHT22;4106;52.532;13.408;2022-09-01T08:30:24;18.10;93.40
8130;DHT22;4106;52.532;13.408;2022-09-01T08:32:51;18.20;94.00
8130;DHT22;4106;52.532;13.408;2022-09-01T08:35:18;18.20;94.60
8130;DHT22;4106;52.532;13.408;2022-09-01T08:37:45;18.20;92.50
8130;DHT22;4106;52.532;13.408;2022-09-01T08:40:13;18.30;92.30
8130;DHT22;4106;52.532;13.408;2022-09-01T08:42:58;18.30;93.40
8130;DHT22;4106;52.532;13.408;2022-09-01T08:45:26;18.30;91.40
8130;DHT22;4106;52.532;13.408;2022-09-01T08:47:53;18.40;93.60
8130;DHT22;4106;52.532;13.408;2022-09-01T08:50:20;18.50;92.30
8130;DHT22;4106;52.532;13.408;2022-09-01T08:52:59;18.60;91.10
8130;DHT22;4106;52.532;13.408;2022-09-01T08:55:27;18.60;91.20
8130;DHT22;4106;52.532;13.408;2022-09-01T08:57:55;18.60;86.60
8130;DHT22;4106;52.532;13.408;2022-09-01T09:00:23;18.60;91.40
8130;DHT22;4106;52.532;13.408;2022-09-01T09:05:30;18.60;89.00
8130;DHT22;4106;52.532;13.408;2022-09-01T09:10:36;18.80;87.10
8130;DHT22;4106;52.532;13.408;2022-09-01T09:13:11;18.70;86.90
8130;DHT22;4106;52.532;13.408;2022-09-01T09:15:41;18.90;89.60
8130;DHT22;4106;52.532;13.408;2022-09-01T09:18:15;18.90;89.50
8130;DHT22;4106;52.532;13.408;2022-09-01T09:20:39;19.00;88.40
8130;DHT22;4106;52.532;13.408;2022-09-01T09:23:10;19.20;90.00
8130;DHT22;4106;52.532;13.408;2022-09-01T09:25:34;19.30;90.80
8130;DHT22;4106;52.532;13.408;2022-09-01T09:28:01;19.40;90.50
8130;DHT22;4106;52.532;13.408;2022-09-01T09:30:29;19.30;86.80
8130;DHT22;4106;52.532;13.408;2022-09-01T09:33:00;19.30;86.70
8130;DHT22;4106;52.532;13.408;2022-09-01T09:35:28;19.20;87.80
8130;DHT22;4106;52.532;13.408;2022-09-01T09:37:55;19.30;86.70
8130;DHT22;4106;52.532;13.408;2022-09-01T09:40:23;19.30;87.30
8130;DHT22;4106;52.532;13.408;2022-09-01T09:43:03;19.30;81.60
8130;DHT22;4106;52.532;13.408;2022-09-01T09:45:35;19.40;85.20
8130;DHT22;4106;52.532;13.408;2022-09-01T09:48:07;19.60;81.60
8130;DHT22;4106;52.532;13.408;2022-09-01T09:50:35;19.70;79.60
8130;DHT22;4106;52.532;13.408;2022-09-01T09:53:13;20.00;85.00
8130;DHT22;4106;52.532;13.408;2022-09-01T09:56:02;20.00;85.10
8130;DHT22;4106;52.532;13.408;2022-09-01T09:58:34;20.60;86.70
8130;DHT22;4106;52.532;13.408;2022-09-01T10:01:10;20.50;85.50
8130;DHT22;4106;52.532;13.408;2022-09-01T10:03:34;20.80;72.90
8130;DHT22;4106;52.532;13.408;2022-09-01T10:06:01;20.90;73.20
8130;DHT22;4106;52.532;13.408;2022-09-01T10:08:39;20.90;72.50
8130;DHT22;4106;52.532;13.408;2022-09-01T10:11:05;20.90;71.40
8130;DHT22;4106;52.532;13.408;2022-09-01T10:13:32;20.90;71.60
8130;DHT22;4106;52.532;13.408;2022-09-01T10:16:02;21.00;71.90
8130;DHT22;4106;52.532;13.408;2022-09-01T10:18:30;20.80;74.00
8130;DHT22;4106;52.532;13.408;2022-09-01T10:21:03;20.70;78.60
8130;DHT22;4106;52.532;13.408;2022-09-01T10:23:30;20.70;70.50
8130;DHT22;4106;52.532;13.408;2022-09-01T10:26:00;20.80;68.40
8130;DHT22;4106;52.532;13.408;2022-09-01T10:28:25;20.80;73.40
8130;DHT22;4106;52.532;13.408;2022-09-01T10:30:52;20.70;68.50
8130;DHT22;4106;52.532;13.408;2022-09-01T10:33:20;20.80;74.20
8130;DHT22;4106;52.532;13.408;2022-09-01T10:35:48;21.20;71.00
8130;DHT22;4106;52.532;13.408;2022-09-01T10:38:16;21.10;74.00
8130;DHT22;4106;52.532;13.408;2022-09-01T10:40:43;21.00;68.50
8130;DHT22;4106;52.532;13.408;2022-09-01T10:43:23;21.00;64.90
8130;DHT22;4106;52.532;13.408;2022-09-01T10:45:49;21.10;65.50
8130;DHT22;4106;52.532;13.408;2022-09-01T10:48:33;21.10;64.60
8130;DHT22;4106;52.532;13.408;2022-09-01T10:51:39;21.10;65.00
8130;DHT22;4106;52.532;13.408;2022-09-01T10:54:01;21.20;63.90
8130;DHT22;4106;52.532;13.408;2022-09-01T10:56:38;21.30;65.90
8130;DHT22;4106;52.532;13.408;2022-09-01T10:59:07;21.50;68.80
8130;DHT22;4106;52.532;13.408;2022-09-01T11:02:10;22.00;66.20
8130;DHT22;4106;52.532;13.408;2022-09-01T11:07:33;21.50;60.90
8130;DHT22;4106;52.532;13.408;2022-09-01T11:10:36;21.30;67.90
8130;DHT22;4106;52.532;13.408;2022-09-01T11:15:54;21.60;64.80
8130;DHT22;4106;52.532;13.408;2022-09-01T11:18:24;21.80;65.00
8130;DHT22;4106;52.532;13.408;2022-09-01T11:20:51;21.80;65.20
8130;DHT22;4106;52.532;13.408;2022-09-01T11:23:24;21.90;65.30
8130;DHT22;4106;52.532;13.408;2022-09-01T11:25:56;21.90;61.10
8130;DHT22;4106;52.532;13.408;2022-09-01T11:28:38;22.00;61.20
8130;DHT22;4106;52.532;13.408;2022-09-01T11:31:24;22.00;60.00
8130;DHT22;4106;52.532;13.408;2022-09-01T11:34:10;22.00;65.60
8130;DHT22;4106;52.532;13.408;2022-09-01T11:36:51;22.10;63.90
8130;DHT22;4106;52.532;13.408;2022-09-01T11:39:30;22.10;60.90
8130;DHT22;4106;52.532;13.408;2022-09-01T11:42:01;22.40;63.20
8130;DHT22;4106;52.532;13.408;2022-09-01T11:47:03;23.20;59.70
8130;DHT22;4106;52.532;13.408;2022-09-01T11:49:30;23.10;55.00
8130;DHT22;4106;52.532;13.408;2022-09-01T11:51:57;22.90;55.00
8130;DHT22;4106;52.532;13.408;2022-09-01T11:54:23;22.80;57.80
8130;DHT22;4106;52.532;13.408;2022-09-01T11:56:51;22.90;59.70
8130;DHT22;4106;52.532;13.408;2022-09-01T11:59:31;22.80;56.00
8130;DHT22;4106;52.532;13.408;2022-09-01T12:01:58;22.80;54.20
8130;DHT22;4106;52.532;13.408;2022-09-01T12:04:30;22.80;54.20
8130;DHT22;4106;52.532;13.408;2022-09-01T12:06:59;22.50;55.20
8130;DHT22;4106;52.532;13.408;2022-09-01T12:09:34;22.50;57.30
8130;DHT22;4106;52.532;13.408;2022-09-01T12:12:00;22.50;54.80
8130;DHT22;4106;52.532;13.408;2022-09-01T12:14:28;22.60;58.80
8130;DHT22;4106;52.532;13.408;2022-09-01T12:17:01;22.80;59.50
8130;DHT22;4106;52.532;13.408;2022-09-01T12:19:28;22.80;59.50
8130;DHT22;4106;52.532;13.408;2022-09-01T12:21:57;22.80;57.30
8130;DHT22;4106;52.532;13.408;2022-09-01T12:24:23;22.20;58.90
8130;DHT22;4106;52.532;13.408;2022-09-01T12:26:52;22.00;60.00
8130;DHT22;4106;52.532;13.408;2022-09-01T12:29:18;22.00;59.80
8130;DHT22;4106;52.532;13.408;2022-09-01T12:31:46;22.20;58.70
8130;DHT22;4106;52.532;13.408;2022-09-01T12:34:26;22.40;59.10
8130;DHT22;4106;52.532;13.408;2022-09-01T12:37:11;22.40;59.00
8130;DHT22;4106;52.532;13.408;2022-09-01T12:39:39;22.40;58.90
8130;DHT22;4106;52.532;13.408;2022-09-01T12:42:24;22.50;58.40
8130;DHT22;4106;52.532;13.408;2022-09-01T12:44:51;22.20;57.90
8130;DHT22;4106;52.532;13.408;2022-09-01T12:49:57;22.30;63.10
8130;DHT22;4106;52.532;13.408;2022-09-01T12:52:24;22.40;63.50
8130;DHT22;4106;52.532;13.408;2022-09-01T12:55:11;22.40;60.90
8130;DHT22;4106;52.532;13.408;2022-09-01T12:57:40;22.70;62.00
8130;DHT22;4106;52.532;13.408;2022-09-01T13:00:17;22.70;62.10
8130;DHT22;4106;52.532;13.408;2022-09-01T13:05:28;23.70;55.80
8130;DHT22;4106;52.532;13.408;2022-09-01T13:07:56;25.00;57.40
8130;DHT22;4106;52.532;13.408;2022-09-01T13:10:24;25.00;53.20
8130;DHT22;4106;52.532;13.408;2022-09-01T13:12:51;25.00;53.10
8130;DHT22;4106;52.532;13.408;2022-09-01T13:15:19;25.00;53.10
8130;DHT22;4106;52.532;13.408;2022-09-01T13:17:46;24.90;53.10
8130;DHT22;4106;52.532;13.408;2022-09-01T13:20:13;24.60;58.50
8130;DHT22;4106;52.532;13.408;2022-09-01T13:22:40;24.60;56.40
8130;DHT22;4106;52.532;13.408;2022-09-01T13:25:07;24.40;56.20
8130;DHT22;4106;52.532;13.408;2022-09-01T13:27:36;24.00;57.00
8130;DHT22;4106;52.532;13.408;2022-09-01T13:30:04;23.60;56.00
8130;DHT22;4106;52.532;13.408;2022-09-01T13:32:31;23.60;55.90
8130;DHT22;4106;52.532;13.408;2022-09-01T13:34:58;23.40;57.20
8130;DHT22;4106;52.532;13.408;2022-09-01T13:37:26;23.10;57.70
8130;DHT22;4106;52.532;13.408;2022-09-01T13:39:53;23.00;59.60
8130;DHT22;4106;52.532;13.408;2022-09-01T13:42:20;22.80;57.90
8130;DHT22;4106;52.532;13.408;2022-09-01T13:44:47;22.50;60.50
8130;DHT22;4106;52.532;13.408;2022-09-01T13:47:14;22.50;58.90
8130;DHT22;4106;52.532;13.408;2022-09-01T13:49:42;22.60;59.30
8130;DHT22;4106;52.532;13.408;2022-09-01T13:52:10;22.70;55.90
8130;DHT22;4106;52.532;13.408;2022-09-01T13:54:38;22.80;56.10
8130;DHT22;4106;52.532;13.408;2022-09-01T13:57:06;22.70;55.90
8130;DHT22;4106;52.532;13.408;2022-09-01T13:59:34;23.20;56.40
8130;DHT22;4106;52.532;13.408;2022-09-01T14:02:03;23.50;55.50
8130;DHT22;4106;52.532;13.408;2022-09-01T14:04:29;23.40;55.40
8130;DHT22;4106;52.532;13.408;2022-09-01T14:06:56;23.80;56.80
8130;DHT22;4106;52.532;13.408;2022-09-01T14:09:24;24.10;56.80
8130;DHT22;4106;52.532;13.408;2022-09-01T14:11:52;24.30;55.90
8130;DHT22;4106;52.532;13.408;2022-09-01T14:14:20;24.40;57.60
8130;DHT22;4106;52.532;13.408;2022-09-01T14:16:47;24.20;55.50
8130;DHT22;4106;52.532;13.408;2022-09-01T14:19:19;24.10;54.20
8130;DHT22;4106;52.532;13.408;2022-09-01T14:21:47;24.20;57.40
8130;DHT22;4106;52.532;13.408;2022-09-01T14:24:16;24.30;54.40
8130;DHT22;4106;52.532;13.408;2022-09-01T14:26:44;24.40;56.80
8130;DHT22;4106;52.532;13.408;2022-09-01T14:29:11;24.40;56.60
8130;DHT22;4106;52.532;13.408;2022-09-01T14:31:38;24.50;57.00
8130;DHT22;4106;52.532;13.408;2022-09-01T14:34:06;24.20;56.20
8130;DHT22;4106;52.532;13.408;2022-09-01T14:36:33;24.20;56.30
8130;DHT22;4106;52.532;13.408;2022-09-01T14:39:00;23.80;54.80
8130;DHT22;4106;52.532;13.408;2022-09-01T14:41:28;23.70;57.30
8130;DHT22;4106;52.532;13.408;2022-09-01T14:43:55;23.70;57.10
8130;DHT22;4106;52.532;13.408;2022-09-01T14:46:22;23.70;57.30
8130;DHT22;4106;52.532;13.408;2022-09-01T14:48:50;23.80;52.30
8130;DHT22;4106;52.532;13.408;2022-09-01T14:51:19;23.80;52.30
8130;DHT22;4106;52.532;13.408;2022-09-01T14:53:45;24.00;52.00
8130;DHT22;4106;52.532;13.408;2022-09-01T14:56:12;23.90;52.40
8130;DHT22;4106;52.532;13.408;2022-09-01T14:58:39;23.90;55.00
8130;DHT22;4106;52.532;13.408;2022-09-01T15:01:06;23.80;55.60
8130;DHT22;4106;52.532;13.408;2022-09-01T15:03:34;23.50;55.50
8130;DHT22;4106;52.532;13.408;2022-09-01T15:06:02;23.20;55.30
8130;DHT22;4106;52.532;13.408;2022-09-01T15:08:30;23.20;55.40
8130;DHT22;4106;52.532;13.408;2022-09-01T15:10:57;22.90;55.10
8130;DHT22;4106;52.532;13.408;2022-09-01T15:13:24;22.70;53.80
8130;DHT22;4106;52.532;13.408;2022-09-01T15:15:51;22.60;54.30
8130;DHT22;4106;52.532;13.408;2022-09-01T15:18:19;22.40;54.20
8130;DHT22;4106;52.532;13.408;2022-09-01T15:20:46;22.30;53.70
8130;DHT22;4106;52.532;13.408;2022-09-01T15:23:14;22.10;54.80
8130;DHT22;4106;52.532;13.408;2022-09-01T15:25:40;22.30;54.30
8130;DHT22;4106;52.532;13.408;2022-09-01T15:28:08;22.60;54.20
8130;DHT22;4106;52.532;13.408;2022-09-01T15:30:35;22.80;53.60
8130;DHT22;4106;52.532;13.408;2022-09-01T15:33:02;22.80;54.00
8130;DHT22;4106;52.532;13.408;2022-09-01T15:35:29;22.80;55.00
8130;DHT22;4106;52.532;13.408;2022-09-01T15:37:56;22.60;55.90
8130;DHT22;4106;52.532;13.408;2022-09-01T15:40:24;22.60;58.20
8130;DHT22;4106;52.532;13.408;2022-09-01T15:42:51;22.40;56.10
8130;DHT22;4106;52.532;13.408;2022-09-01T15:45:20;22.50;56.10
8130;DHT22;4106;52.532;13.408;2022-09-01T15:47:47;22.40;58.20
8130;DHT22;4106;52.532;13.408;2022-09-01T15:50:15;22.40;58.40
8130;DHT22;4106;52.532;13.408;2022-09-01T15:52:46;22.30;57.30
8130;DHT22;4106;52.532;13.408;2022-09-01T15:55:12;22.30;57.60
8130;DHT22;4106;52.532;13.408;2022-09-01T15:57:40;21.90;58.00
8130;DHT22;4106;52.532;13.408;2022-09-01T16:00:09;21.80;56.20
8130;DHT22;4106;52.532;13.408;2022-09-01T16:02:36;21.70;56.10
8130;DHT22;4106;52.532;13.408;2022-09-01T16:05:04;21.60;56.10
8130;DHT22;4106;52.532;13.408;2022-09-01T16:07:31;21.40;57.10
8130;DHT22;4106;52.532;13.408;2022-09-01T16:09:58;21.30;58.50
8130;DHT22;4106;52.532;13.408;2022-09-01T16:12:26;21.30;58.00
8130;DHT22;4106;52.532;13.408;2022-09-01T16:14:53;21.30;57.70